Time;durP1;ratioP1;P1;durP2;ratioP2;P2;SDS_P1;SDS_P2;PMS_P1;PMS_P2;Temp;Humidity;BMP_temperature;BMP_pressure;BME280_temperature;BME280_humidity;BME280_pressure;Samples;Min_cycle;Max_cycle;Signal;HPM_P1;HPM_P2
2021/12/23 00:01:12;;;;;;;2.20;2.10;;;;;;;-1.04;62.89;101329.70;100979;1322;107789;-80
2021/12/23 00:03:41;;;;;;;2.20;2.10;;;;;;;-1.04;63.01;101330.06;101084;1318;139771;-80
2021/12/23 00:06:08;;;;;;;1.90;1.90;;;;;;;-1.05;62.84;101323.08;101167;1321;96113;-79
2021/12/23 00:08:36;;;;;;;2.00;2.00;;;;;;;-1.03;63.14;101319.86;101197;1320;95323;-79
2021/12/23 00:11:04;;;;;;;2.20;2.10;;;;;;;-1.03;62.93;101313.55;101175;1318;138118;-80
2021/12/23 00:13:36;;;;;;;2.40;2.30;;;;;;;-1.04;62.95;101308.82;101381;1318;109767;-79
2021/12/23 00:16:16;;;;;;;2.20;2.10;;;;;;;-1.09;62.73;101305.01;101423;1321;139906;-79
2021/12/23 00:18:56;;;;;;;2.20;2.10;;;;;;;-1.10;63.21;101303.02;101060;1320;95606;-79
2021/12/23 00:24:10;;;;;;;2.10;2.10;;;;;;;-1.02;62.97;101294.77;101124;1321;110133;-79
2021/12/23 00:26:38;;;;;;;2.20;2.10;;;;;;;-1.02;63.12;101286.73;101414;1318;96482;-79
2021/12/23 00:29:06;;;;;;;2.30;2.20;;;;;;;-1.06;62.93;101285.23;101167;1320;138507;-79
2021/12/23 00:31:34;;;;;;;2.40;2.30;;;;;;;-1.17;63.12;101283.77;101368;1321;106940;-79
2021/12/23 00:34:02;;;;;;;2.20;2.10;;;;;;;-1.27;63.37;101287.98;101069;1319;139381;-80
2021/12/23 00:36:32;;;;;;;1.90;1.90;;;;;;;-1.32;63.73;101286.57;101099;1320;95926;-77
2021/12/23 00:39:02;;;;;;;2.00;2.00;;;;;;;-1.27;63.78;101285.34;101213;1318;137768;-78
2021/12/23 00:41:31;;;;;;;1.90;1.90;;;;;;;-1.26;63.65;101287.66;101391;1318;108360;-79
2021/12/23 00:43:59;;;;;;;2.30;2.20;;;;;;;-1.29;63.82;101284.76;101306;1318;108847;-79
2021/12/23 00:46:27;;;;;;;2.20;2.10;;;;;;;-1.38;64.07;101277.27;100963;1318;139329;-79
2021/12/23 00:48:55;;;;;;;1.90;1.90;;;;;;;-1.34;64.23;101279.15;101268;1322;95820;-79
2021/12/23 00:51:22;;;;;;;1.90;1.90;;;;;;;-1.28;63.93;101274.84;101258;1321;140474;-79
2021/12/23 00:53:53;;;;;;;1.90;1.90;;;;;;;-1.31;64.07;101272.45;101320;1318;108922;-79
2021/12/23 00:56:21;;;;;;;2.30;2.20;;;;;;;-1.43;64.00;101264.89;101246;1318;95578;-79
2021/12/23 00:58:48;;;;;;;2.30;2.20;;;;;;;-1.48;64.28;101265.40;101146;1321;138645;-79
2021/12/23 01:01:17;;;;;;;2.10;2.10;;;;;;;-1.45;64.59;101265.01;101408;1317;108503;-79
2021/12/23 01:03:45;;;;;;;2.00;2.00;;;;;;;-1.42;64.43;101260.40;101229;1321;138382;-79
2021/12/23 01:06:14;;;;;;;2.30;2.20;;;;;;;-1.40;64.22;101257.34;101395;1318;95207;-79
2021/12/23 01:08:42;;;;;;;1.90;1.90;;;;;;;-1.51;64.46;101256.95;101369;1318;95289;-79
2021/12/23 01:11:29;;;;;;;1.90;1.90;;;;;;;-1.53;64.69;101257.23;101500;1317;138733;-78
2021/12/23 01:14:03;;;;;;;2.00;2.00;;;;;;;-1.49;64.71;101250.73;101323;1317;108046;-80
2021/12/23 01:19:18;;;;;;;2.50;2.40;;;;;;;-1.56;64.55;101249.13;101412;1317;96146;-78
2021/12/23 01:21:46;;;;;;;2.00;2.00;;;;;;;-1.54;64.80;101243.26;101069;1318;139096;-80
2021/12/23 01:24:14;;;;;;;1.90;1.90;;;;;;;-1.54;64.83;101238.75;101073;1321;108972;-80
2021/12/23 01:26:42;;;;;;;2.20;2.10;;;;;;;-1.55;64.62;101238.72;101430;1317;95326;-80
2021/12/23 01:29:10;;;;;;;2.40;2.30;;;;;;;-1.57;64.81;101240.36;101387;1317;138061;-80
2021/12/23 01:31:38;;;;;;;2.30;2.20;;;;;;;-1.58;64.97;101244.69;101737;1318;107857;-78
2021/12/23 01:34:06;;;;;;;2.20;2.10;;;;;;;-1.53;65.12;101242.59;101037;1321;139107;-79
2021/12/23 01:36:34;;;;;;;2.30;2.20;;;;;;;-1.57;64.82;101240.52;101838;1318;96201;-79
2021/12/23 01:39:02;;;;;;;2.00;2.00;;;;;;;-1.57;64.94;101237.77;101389;1318;95714;-79
2021/12/23 01:41:31;;;;;;;2.20;2.10;;;;;;;-1.52;64.99;101235.52;101017;1321;137908;-79
2021/12/23 01:43:58;;;;;;;2.20;2.10;;;;;;;-1.55;64.71;101230.68;101182;1321;109024;-81
2021/12/23 01:46:26;;;;;;;2.00;2.00;;;;;;;-1.61;64.66;101230.48;101283;1318;138592;-80
2021/12/23 01:48:54;;;;;;;2.00;2.00;;;;;;;-1.64;64.91;101224.96;101304;1321;96141;-80
2021/12/23 01:51:22;;;;;;;2.20;2.10;;;;;;;-1.70;64.77;101223.34;100914;1321;138217;-80
2021/12/23 01:53:50;;;;;;;2.30;2.20;;;;;;;-1.71;64.84;101216.33;101306;1317;109634;-79
2021/12/23 01:56:18;;;;;;;2.20;2.10;;;;;;;-1.71;64.72;101212.14;101304;1321;95304;-80
2021/12/23 01:58:46;;;;;;;2.30;2.20;;;;;;;-1.70;64.70;101206.09;101322;1318;138106;-79
2021/12/23 02:01:14;;;;;;;2.20;2.10;;;;;;;-1.67;64.74;101205.34;101348;1319;108818;-80
2021/12/23 02:03:42;;;;;;;2.40;2.30;;;;;;;-1.72;64.73;101198.91;101124;1321;138388;-79
2021/12/23 02:06:10;;;;;;;2.30;2.20;;;;;;;-1.68;64.72;101197.48;101378;1311;95813;-80
2021/12/23 02:11:45;;;;;;;2.40;2.30;;;;;;;-1.68;64.67;101192.61;102844;1317;138825;-80
2021/12/23 02:14:13;;;;;;;2.20;2.10;;;;;;;-1.71;64.79;101188.84;102830;1317;110631;-80
2021/12/23 02:16:41;;;;;;;2.30;2.20;;;;;;;-1.73;64.73;101188.05;102689;1317;140074;-81
2021/12/23 02:19:20;;;;;;;2.20;2.10;;;;;;;-1.66;64.45;101181.36;103061;1319;95240;-80
2021/12/23 02:21:48;;;;;;;2.20;2.10;;;;;;;-1.62;64.53;101174.33;102837;1316;139412;-80
2021/12/23 02:24:17;;;;;;;2.20;2.10;;;;;;;-1.68;64.35;101170.51;102769;1319;109292;-80
2021/12/23 02:26:45;;;;;;;2.30;2.20;;;;;;;-1.73;64.30;101167.19;102853;1316;95206;-83
2021/12/23 02:29:12;;;;;;;2.20;2.10;;;;;;;-1.75;64.42;101160.13;102774;1318;140234;-80
2021/12/23 02:31:40;;;;;;;2.00;2.00;;;;;;;-1.78;64.33;101158.79;102798;1317;108707;-79
2021/12/23 02:34:07;;;;;;;2.20;2.10;;;;;;;-1.81;64.32;101152.60;102756;1317;140323;-80
2021/12/23 02:36:35;;;;;;;2.30;2.20;;;;;;;-1.85;64.44;101154.56;102888;1318;95611;-80
2021/12/23 02:39:03;;;;;;;2.30;2.20;;;;;;;-1.92;64.38;101151.18;102840;1318;95132;-80
2021/12/23 02:41:31;;;;;;;1.90;1.90;;;;;;;-1.90;64.38;101142.20;102715;1317;139562;-80
2021/12/23 02:43:59;;;;;;;2.20;2.10;;;;;;;-1.92;64.19;101143.02;102767;1319;109420;-80
2021/12/23 02:46:26;;;;;;;2.30;2.20;;;;;;;-1.94;64.29;101138.39;102712;1318;142738;-80
2021/12/23 02:48:54;;;;;;;2.30;2.20;;;;;;;-1.98;64.33;101137.02;102814;1318;95276;-80
2021/12/23 02:51:23;;;;;;;2.20;2.10;;;;;;;-1.99;64.29;101130.04;102681;1317;139529;-79
2021/12/23 02:53:50;;;;;;;2.20;2.10;;;;;;;-1.96;64.09;101126.84;102765;1318;108793;-80
2021/12/23 02:56:18;;;;;;;2.00;2.00;;;;;;;-1.88;64.02;101127.66;102838;1317;95181;-80
2021/12/23 02:58:46;;;;;;;2.20;2.10;;;;;;;-1.87;63.68;101125.07;102674;1318;138770;-80
2021/12/23 03:01:16;;;;;;;2.30;2.20;;;;;;;-1.98;63.72;101117.89;102814;1317;107560;-80
2021/12/23 03:03:45;;;;;;;2.30;2.20;;;;;;;-1.93;63.93;101123.83;102703;1316;141649;-80
2021/12/23 03:06:13;;;;;;;2.20;2.10;;;;;;;-1.95;63.55;101123.89;102859;1317;95952;-79
2021/12/23 03:08:45;;;;;;;2.40;2.30;;;;;;;-1.96;63.66;101123.55;102808;1318;95759;-79
2021/12/23 03:11:15;;;;;;;2.30;2.20;;;;;;;-1.97;63.83;101119.52;102769;1318;139253;-80
2021/12/23 03:13:43;;;;;;;2.20;2.10;;;;;;;-1.91;63.66;101120.77;102815;1318;109413;-79
2021/12/23 03:16:12;;;;;;;2.00;2.00;;;;;;;-1.87;63.36;101110.61;102695;1318;140380;-79
2021/12/23 03:18:40;;;;;;;2.00;2.00;;;;;;;-1.88;63.43;101108.15;102708;1319;95255;-79
2021/12/23 03:21:08;;;;;;;2.30;2.20;;;;;;;-1.90;63.06;101107.38;102764;1317;107982;-79
2021/12/23 03:23:36;;;;;;;2.70;2.60;;;;;;;-1.89;63.19;101101.88;102680;1318;140118;-80
2021/12/23 03:26:05;;;;;;;2.40;2.30;;;;;;;-1.94;62.95;101094.20;102798;1317;95164;-80
2021/12/23 03:28:33;;;;;;;2.00;2.00;;;;;;;-1.97;62.92;101092.19;102614;1318;141279;-80
2021/12/23 03:31:02;;;;;;;2.00;2.00;;;;;;;-2.00;63.02;101088.76;102816;1317;107819;-80
2021/12/23 03:33:29;;;;;;;2.30;2.20;;;;;;;-2.00;63.18;101085.46;102641;1318;140032;-80
2021/12/23 03:35:58;;;;;;;2.60;2.50;;;;;;;-1.96;63.29;101087.36;102767;1317;95173;-80
2021/12/23 03:38:26;;;;;;;2.20;2.10;;;;;;;-1.90;63.20;101082.68;102838;1317;95183;-80
2021/12/23 03:40:54;;;;;;;2.20;2.10;;;;;;;-1.81;63.00;101082.29;102766;1318;139886;-80
2021/12/23 03:43:22;;;;;;;2.40;2.30;;;;;;;-1.71;62.82;101075.69;103045;1318;110180;-80
2021/12/23 03:45:50;;;;;;;2.30;2.20;;;;;;;-1.70;62.50;101071.34;102737;1318;139255;-80
2021/12/23 03:48:19;;;;;;;2.50;2.40;;;;;;;-1.75;62.57;101071.02;102829;1318;95126;-80
2021/12/23 03:50:47;;;;;;;2.50;2.40;;;;;;;-1.67;62.54;101071.30;102846;1318;108411;-80
2021/12/23 03:53:16;;;;;;;2.00;2.00;;;;;;;-1.64;62.49;101065.46;102741;1318;140777;-80
2021/12/23 03:55:44;;;;;;;2.20;2.10;;;;;;;-1.64;62.35;101061.66;102910;1318;95221;-80
2021/12/23 03:58:12;;;;;;;2.40;2.30;;;;;;;-1.61;62.28;101060.54;102852;1317;139847;-81
2021/12/23 04:00:41;;;;;;;2.20;2.10;;;;;;;-1.59;62.27;101055.88;102946;1316;109334;-82
2021/12/23 04:03:09;;;;;;;2.40;2.30;;;;;;;-1.55;61.88;101046.45;102995;1317;109258;-80
2021/12/23 04:05:37;;;;;;;2.20;2.10;;;;;;;-1.58;62.00;101042.33;102912;1317;140226;-80
2021/12/23 04:08:05;;;;;;;2.20;2.10;;;;;;;-1.63;62.10;101037.81;102895;1317;95763;-80
2021/12/23 04:10:33;;;;;;;2.30;2.20;;;;;;;-1.64;62.54;101036.41;103253;1318;139572;-80
2021/12/23 04:13:01;;;;;;;2.50;2.40;;;;;;;-1.64;62.16;101028.73;103692;1315;108698;-80
2021/12/23 04:15:29;;;;;;;2.20;2.10;;;;;;;-1.63;62.34;101023.17;103177;1317;141170;-80
2021/12/23 04:17:57;;;;;;;2.20;2.10;;;;;;;-1.60;62.10;101018.77;102525;1317;95725;-80
2021/12/23 04:20:32;;;;;;;2.30;2.20;;;;;;;-1.57;62.10;101015.89;102426;1318;107891;-80
2021/12/23 04:23:02;;;;;;;2.50;2.40;;;;;;;-1.60;62.21;101008.68;102647;1317;140284;-80
2021/12/23 04:25:31;;;;;;;2.30;2.20;;;;;;;-1.65;62.25;101007.11;102766;1320;95240;-80
2021/12/23 04:28:04;;;;;;;2.60;2.50;;;;;;;-1.59;62.16;101002.28;102956;1317;140752;-80
2021/12/23 04:30:32;;;;;;;2.30;2.20;;;;;;;-1.59;61.94;100996.49;102912;1318;109607;-80
2021/12/23 04:33:00;;;;;;;2.10;2.10;;;;;;;-1.62;61.98;100993.09;102889;1318;110344;-80
2021/12/23 04:35:28;;;;;;;2.40;2.30;;;;;;;-1.72;61.95;100994.88;102648;1321;139867;-80
2021/12/23 04:37:55;;;;;;;2.50;2.40;;;;;;;-1.75;62.27;100990.07;102905;1317;96386;-80
2021/12/23 04:40:23;;;;;;;2.30;2.20;;;;;;;-1.67;62.38;100988.60;102771;1317;140777;-80
2021/12/23 04:42:51;;;;;;;2.20;2.10;;;;;;;-1.61;62.17;100983.39;102805;1317;109258;-80
2021/12/23 04:45:18;;;;;;;2.20;2.10;;;;;;;-1.60;61.77;100973.48;102849;1318;95817;-80
2021/12/23 04:47:46;;;;;;;2.20;2.10;;;;;;;-1.59;62.09;100971.63;102795;1317;139158;-80
2021/12/23 04:50:15;;;;;;;2.40;2.30;;;;;;;-1.55;62.01;100965.48;102761;1318;109376;-80
2021/12/23 04:52:44;;;;;;;2.30;2.20;;;;;;;-1.53;61.26;100960.47;102644;1316;140285;-80
2021/12/23 04:55:13;;;;;;;2.10;2.10;;;;;;;-1.57;61.78;100956.35;102711;1318;95412;-79
2021/12/23 04:57:42;;;;;;;2.30;2.20;;;;;;;-1.59;61.54;100949.85;102757;1317;140088;-79
2021/12/23 05:00:13;;;;;;;2.10;2.10;;;;;;;-1.67;61.34;100949.79;102760;1317;108581;-79
2021/12/23 05:02:41;;;;;;;2.40;2.30;;;;;;;-1.73;61.63;100946.98;103000;1317;109305;-79
2021/12/23 05:05:09;;;;;;;2.20;2.10;;;;;;;-1.67;61.53;100941.59;102780;1318;140432;-80
2021/12/23 05:07:38;;;;;;;2.20;2.10;;;;;;;-1.65;61.35;100940.24;103342;1317;95257;-80
2021/12/23 05:10:08;;;;;;;2.20;2.10;;;;;;;-1.78;61.49;100933.58;103399;1318;138490;-79
2021/12/23 05:12:42;;;;;;;2.40;2.30;;;;;;;-1.79;61.52;100930.23;103337;1316;111456;-80
2021/12/23 05:15:20;;;;;;;2.80;2.70;;;;;;;-1.80;61.84;100927.07;103315;1317;95241;-80
2021/12/23 05:17:48;;;;;;;2.30;2.20;;;;;;;-1.76;61.63;100927.73;103168;1317;139181;-79
2021/12/23 05:20:17;;;;;;;2.20;2.10;;;;;;;-1.76;61.49;100923.34;102805;1317;110077;-79
2021/12/23 05:22:46;;;;;;;2.20;2.10;;;;;;;-1.83;61.41;100922.27;102295;1316;137579;-79
2021/12/23 05:25:15;;;;;;;2.30;2.20;;;;;;;-1.94;61.61;100920.18;102007;1317;95583;-79
2021/12/23 05:27:43;;;;;;;2.30;2.20;;;;;;;-1.99;61.77;100919.30;102320;1317;140510;-79
2021/12/23 05:30:14;;;;;;;2.30;2.20;;;;;;;-2.06;61.75;100914.92;102639;1317;109714;-80
2021/12/23 05:32:42;;;;;;;2.30;2.20;;;;;;;-2.13;61.95;100906.15;102738;1317;109788;-80
2021/12/23 05:35:12;;;;;;;2.40;2.30;;;;;;;-2.17;62.11;100906.02;102770;1317;140157;-80
2021/12/23 05:37:41;;;;;;;2.60;2.50;;;;;;;-2.16;62.20;100900.64;102879;1317;95360;-79
2021/12/23 05:40:10;;;;;;;2.50;2.40;;;;;;;-2.16;62.14;100899.95;102761;1318;138603;-79
2021/12/23 05:42:38;;;;;;;2.30;2.20;;;;;;;-2.08;62.26;100898.48;102806;1318;110591;-80
2021/12/23 05:45:06;;;;;;;2.30;2.20;;;;;;;-2.00;62.23;100899.81;102845;1317;95286;-79
2021/12/23 05:47:34;;;;;;;2.40;2.30;;;;;;;-1.93;61.99;100896.20;102643;1321;138469;-79
2021/12/23 05:50:02;;;;;;;2.60;2.50;;;;;;;-1.98;61.80;100900.04;102812;1317;109357;-79
2021/12/23 05:52:30;;;;;;;2.50;2.40;;;;;;;-2.11;61.80;100894.57;102614;1318;140227;-79
2021/12/23 05:55:01;;;;;;;2.50;2.40;;;;;;;-2.16;62.10;100889.16;102874;1321;95068;-79
2021/12/23 05:57:29;;;;;;;2.40;2.30;;;;;;;-2.22;62.17;100884.64;102769;1317;139295;-79
2021/12/23 05:59:57;;;;;;;2.40;2.30;;;;;;;-2.22;62.47;100887.92;102863;1317;108430;-80
2021/12/23 06:02:25;;;;;;;2.40;2.30;;;;;;;-2.26;62.53;100888.00;102841;1318;110606;-79
2021/12/23 06:04:53;;;;;;;2.50;2.40;;;;;;;-2.32;62.51;100888.82;102835;1316;140376;-79
2021/12/23 06:07:21;;;;;;;2.20;2.10;;;;;;;-2.29;62.60;100883.70;102867;1318;95252;-79
2021/12/23 06:09:49;;;;;;;2.30;2.20;;;;;;;-2.25;62.28;100884.89;102668;1317;138894;-79
2021/12/23 06:12:17;;;;;;;2.50;2.40;;;;;;;-2.24;62.39;100881.95;102952;1317;110772;-79
2021/12/23 06:14:44;;;;;;;2.80;2.70;;;;;;;-2.24;62.49;100881.80;102826;1318;95279;-80
2021/12/23 06:17:12;;;;;;;2.50;2.40;;;;;;;-2.25;62.46;100875.85;102575;1317;139742;-79
2021/12/23 06:19:40;;;;;;;2.30;2.20;;;;;;;-2.25;62.35;100875.67;102774;1317;109146;-79
2021/12/23 06:22:07;;;;;;;2.40;2.30;;;;;;;-2.20;62.26;100873.92;102591;1318;139539;-80
2021/12/23 06:24:35;;;;;;;2.60;2.50;;;;;;;-2.22;62.25;100871.95;102577;1318;95217;-80
2021/12/23 06:27:03;;;;;;;2.50;2.40;;;;;;;-2.23;62.20;100868.96;102738;1317;95244;-81
2021/12/23 06:29:31;;;;;;;2.40;2.30;;;;;;;-2.26;62.42;100862.08;102546;1318;141312;-80
2021/12/23 06:31:58;;;;;;;2.40;2.30;;;;;;;-2.25;62.62;100859.86;102781;1318;109771;-80
2021/12/23 06:34:26;;;;;;;2.50;2.40;;;;;;;-2.29;62.36;100855.52;102811;1317;138527;-81
2021/12/23 06:36:54;;;;;;;2.40;2.30;;;;;;;-2.33;62.33;100858.87;102836;1316;95241;-81
2021/12/23 06:39:21;;;;;;;2.70;2.60;;;;;;;-2.34;62.60;100858.14;102810;1317;108373;-79
2021/12/23 06:41:49;;;;;;;2.70;2.60;;;;;;;-2.31;62.62;100859.45;102629;1318;139267;-80
2021/12/23 06:44:17;;;;;;;2.30;2.20;;;;;;;-2.22;62.39;100858.20;102861;1317;95142;-80
2021/12/23 06:46:45;;;;;;;2.40;2.30;;;;;;;-2.24;62.25;100856.39;102782;1319;140558;-80
2021/12/23 06:49:16;;;;;;;2.40;2.30;;;;;;;-2.25;61.98;100851.13;102790;1318;109262;-80
2021/12/23 06:51:45;;;;;;;2.70;2.60;;;;;;;-2.25;62.32;100849.23;102664;1317;140021;-81
2021/12/23 06:54:17;;;;;;;2.50;2.40;;;;;;;-2.24;62.33;100852.38;102802;1318;95635;-80
2021/12/23 06:56:46;;;;;;;2.30;2.20;;;;;;;-2.24;62.27;100853.27;102816;1318;95394;-81
2021/12/23 06:59:16;;;;;;;2.50;2.40;;;;;;;-2.21;62.02;100850.25;102683;1318;138857;-81
2021/12/23 07:01:47;;;;;;;2.60;2.50;;;;;;;-2.18;62.19;100846.33;102859;1318;106959;-81
2021/12/23 07:04:21;;;;;;;2.70;2.60;;;;;;;-2.15;62.09;100844.67;102706;1318;142450;-81
2021/12/23 07:09:40;;;;;;;2.40;2.30;;;;;;;-2.06;61.78;100842.89;102695;1314;139830;-80
2021/12/23 07:12:10;;;;;;;2.40;2.30;;;;;;;-2.11;61.56;100840.30;102790;1318;110287;-79
2021/12/23 07:14:38;;;;;;;2.50;2.40;;;;;;;-2.17;61.76;100838.19;102871;1318;95272;-80
2021/12/23 07:17:07;;;;;;;2.60;2.50;;;;;;;-2.23;61.78;100831.73;102851;1317;139316;-79
2021/12/23 07:19:35;;;;;;;2.70;2.60;;;;;;;-2.22;61.94;100830.70;102854;1317;108964;-80
2021/12/23 07:22:03;;;;;;;2.40;2.30;;;;;;;-2.17;61.92;100832.79;102880;1317;141365;-80
2021/12/23 07:24:31;;;;;;;2.70;2.60;;;;;;;-2.16;61.90;100827.43;103002;1317;95027;-80
2021/12/23 07:27:00;;;;;;;2.50;2.40;;;;;;;-2.12;62.00;100823.19;102845;1318;95270;-80
2021/12/23 07:29:27;;;;;;;2.60;2.50;;;;;;;-2.09;62.02;100817.38;102658;1318;139559;-80
2021/12/23 07:31:55;;;;;;;2.40;2.30;;;;;;;-2.12;61.89;100810.69;102867;1317;107808;-79
2021/12/23 07:34:23;;;;;;;2.30;2.20;;;;;;;-2.05;61.90;100813.15;102385;1319;138616;-79
2021/12/23 07:36:50;;;;;;;2.40;2.30;;;;;;;-2.05;61.48;100808.63;102398;1318;95299;-79
2021/12/23 07:39:18;;;;;;;2.40;2.30;;;;;;;-2.01;61.68;100805.64;102833;1317;108668;-78
2021/12/23 07:42:06;;;;;;;2.80;2.70;;;;;;;-2.04;61.41;100802.77;102721;1317;140358;-79
2021/12/23 07:44:36;;;;;;;2.60;2.50;;;;;;;-2.06;61.85;100801.81;102773;1317;95767;-79
2021/12/23 07:47:03;;;;;;;2.30;2.20;;;;;;;-2.07;61.28;100798.14;102826;1318;139350;-79
2021/12/23 07:49:31;;;;;;;2.50;2.40;;;;;;;-2.13;61.60;100801.95;102690;1317;108303;-80
2021/12/23 07:51:59;;;;;;;2.40;2.30;;;;;;;-2.16;61.83;100799.24;102380;1317;139967;-80
2021/12/23 07:54:26;;;;;;;2.40;2.30;;;;;;;-2.11;62.11;100799.05;102701;1318;95150;-80
2021/12/23 07:56:54;;;;;;;2.60;2.50;;;;;;;-2.05;61.97;100799.23;102732;1317;95750;-80
2021/12/23 07:59:22;;;;;;;2.20;2.10;;;;;;;-2.02;61.67;100797.76;102551;1318;140090;-80
2021/12/23 08:01:50;;;;;;;2.40;2.30;;;;;;;-2.09;61.52;100787.97;102743;1316;108762;-80
2021/12/23 08:04:17;;;;;;;2.40;2.30;;;;;;;-2.16;61.77;100782.19;102386;1320;140184;-82
2021/12/23 08:06:51;;;;;;;2.30;2.20;;;;;;;-2.15;62.17;100781.36;102597;1319;95214;-80
2021/12/23 08:09:19;;;;;;;2.30;2.20;;;;;;;-2.07;62.34;100775.34;102530;1317;106720;-79
2021/12/23 08:11:46;;;;;;;2.40;2.30;;;;;;;-2.00;61.70;100770.34;102341;1318;141174;-79
2021/12/23 08:14:14;;;;;;;2.30;2.20;;;;;;;-1.97;62.19;100764.70;102439;1317;95494;-79
2021/12/23 08:16:43;;;;;;;2.20;2.10;;;;;;;-1.91;61.81;100760.85;102480;1314;140458;-79
2021/12/23 08:19:11;;;;;;;2.50;2.40;;;;;;;-1.90;61.79;100762.11;102535;1316;107772;-79
2021/12/23 08:21:39;;;;;;;2.50;2.40;;;;;;;-1.91;61.86;100757.93;102767;1317;109979;-79
2021/12/23 08:24:06;;;;;;;2.30;2.20;;;;;;;-1.88;61.72;100755.95;103264;1318;140501;-79
2021/12/23 08:26:40;;;;;;;2.20;2.10;;;;;;;-1.89;61.54;100755.89;103427;1316;95560;-79
2021/12/23 08:29:09;;;;;;;2.20;2.10;;;;;;;-1.92;61.44;100752.99;102289;1318;138426;-79
2021/12/23 08:31:37;;;;;;;2.40;2.30;;;;;;;-2.02;61.72;100748.55;102494;1317;110265;-80
2021/12/23 08:34:05;;;;;;;2.60;2.50;;;;;;;-1.98;62.18;100745.17;102446;1317;140442;-79
2021/12/23 08:36:33;;;;;;;2.30;2.20;;;;;;;-1.88;61.87;100740.95;102437;1317;94349;-79
2021/12/23 08:39:01;;;;;;;2.20;2.10;;;;;;;-1.78;61.88;100740.70;102557;1317;109650;-80
2021/12/23 08:41:28;;;;;;;2.30;2.20;;;;;;;-1.71;61.58;100742.31;102385;1316;139711;-79
2021/12/23 08:43:56;;;;;;;2.30;2.20;;;;;;;-1.75;61.33;100738.20;102551;1317;95279;-79
2021/12/23 08:46:24;;;;;;;2.60;2.50;;;;;;;-1.80;61.35;100729.89;102576;1317;139118;-79
2021/12/23 08:48:52;;;;;;;2.30;2.20;;;;;;;-1.85;61.45;100725.55;102277;1317;108877;-79
2021/12/23 08:51:19;;;;;;;2.30;2.20;;;;;;;-1.86;61.43;100714.39;102654;1319;110512;-79
2021/12/23 08:53:47;;;;;;;2.10;2.10;;;;;;;-1.82;61.55;100709.43;102770;1317;139427;-80
2021/12/23 08:56:15;;;;;;;2.40;2.30;;;;;;;-1.82;61.31;100701.63;102994;1318;95137;-79
2021/12/23 08:58:42;;;;;;;2.40;2.30;;;;;;;-1.80;61.10;100697.65;102964;1316;139275;-80
2021/12/23 09:01:11;;;;;;;2.40;2.30;;;;;;;-1.78;61.13;100695.80;102687;1318;110269;-79
2021/12/23 09:03:39;;;;;;;2.30;2.20;;;;;;;-1.74;61.15;100700.95;102715;1317;95965;-79
2021/12/23 09:06:07;;;;;;;2.30;2.20;;;;;;;-1.67;61.46;100697.50;102516;1317;140254;-79
2021/12/23 09:08:34;;;;;;;2.00;2.00;;;;;;;-1.56;61.15;100692.95;102735;1318;107766;-79
2021/12/23 09:11:03;;;;;;;2.20;2.10;;;;;;;-1.46;61.00;100688.85;102475;1318;139698;-79
2021/12/23 09:13:31;;;;;;;2.30;2.20;;;;;;;-1.44;60.53;100688.23;102739;1317;95702;-79
2021/12/23 09:15:59;;;;;;;2.30;2.20;;;;;;;-1.46;60.63;100685.71;102687;1317;139598;-80
2021/12/23 09:18:27;;;;;;;2.20;2.10;;;;;;;-1.47;60.43;100684.48;102701;1318;109426;-79
2021/12/23 09:20:56;;;;;;;2.20;2.10;;;;;;;-1.44;60.41;100674.45;102568;1318;109869;-80
2021/12/23 09:23:24;;;;;;;2.10;2.00;;;;;;;-1.33;60.42;100670.56;102684;1317;140132;-80
2021/12/23 09:25:53;;;;;;;2.40;2.30;;;;;;;-1.26;60.35;100665.17;102634;1318;95672;-80
2021/12/23 09:28:50;;;;;;;2.10;2.10;;;;;;;-1.21;60.27;100662.00;102671;1317;140354;-79
2021/12/23 09:34:06;;;;;;;2.20;2.10;;;;;;;-1.21;59.99;100652.09;102563;1318;139522;-79
2021/12/23 09:36:35;;;;;;;2.00;2.00;;;;;;;-1.23;59.89;100647.33;102752;1318;95305;-79
2021/12/23 09:39:06;;;;;;;2.10;2.00;;;;;;;-1.25;60.06;100642.92;102734;1317;109776;-79
2021/12/23 09:41:37;;;;;;;2.30;2.20;;;;;;;-1.12;60.44;100642.71;102616;1317;139700;-79
2021/12/23 09:44:08;;;;;;;2.30;2.20;;;;;;;-1.01;60.02;100642.98;102770;1318;95788;-79
2021/12/23 09:46:37;;;;;;;2.20;2.10;;;;;;;-0.97;59.35;100641.67;102678;1317;139742;-80
2021/12/23 09:49:06;;;;;;;2.20;2.10;;;;;;;-0.92;59.38;100641.83;102897;1317;109977;-80
2021/12/23 09:51:36;;;;;;;2.00;2.00;;;;;;;-0.92;59.16;100642.52;102750;1317;110396;-80
2021/12/23 09:54:06;;;;;;;2.20;2.10;;;;;;;-0.90;59.12;100642.92;102646;1318;139268;-79
2021/12/23 09:56:35;;;;;;;2.00;2.00;;;;;;;-0.87;59.43;100636.71;102667;1317;95054;-79
2021/12/23 09:59:06;;;;;;;2.00;2.00;;;;;;;-0.86;59.53;100632.73;102686;1317;139865;-79
2021/12/23 10:01:35;;;;;;;2.50;2.40;;;;;;;-0.89;59.14;100631.44;102718;1317;109324;-79
2021/12/23 10:04:03;;;;;;;2.50;2.40;;;;;;;-0.81;59.50;100626.02;102566;1318;143638;-79
2021/12/23 10:06:32;;;;;;;1.80;1.80;;;;;;;-0.77;58.83;100620.20;102755;1318;95153;-79
2021/12/23 10:09:00;;;;;;;1.90;1.90;;;;;;;-0.72;58.93;100612.82;102782;1318;108679;-80
2021/12/23 10:11:41;;;;;;;2.00;2.00;;;;;;;-0.81;58.41;100611.73;102620;1317;139589;-80
2021/12/23 10:31:40;;;;;;;2.00;2.00;;;;;;;-0.64;58.87;100573.23;102626;1317;108521;-79
2021/12/23 10:37:25;;;;;;;2.20;2.10;;;;;;;-0.44;58.25;100555.72;102849;1317;95335;-79
2021/12/23 10:40:05;;;;;;;2.00;2.00;;;;;;;-0.35;58.30;100548.73;102693;1318;140355;-79
2021/12/23 10:42:34;;;;;;;2.00;2.00;;;;;;;-0.27;57.95;100543.30;102651;1317;107931;-80
2021/12/23 10:45:11;;;;;;;1.80;1.80;;;;;;;-0.24;57.73;100536.04;102812;1317;111131;-80
2021/12/23 10:47:48;;;;;;;1.80;1.80;;;;;;;-0.20;58.08;100530.89;102491;1317;138276;-79
2021/12/23 10:50:45;;;;;;;2.00;2.00;;;;;;;-0.21;57.84;100526.33;102735;1316;95170;-79
2021/12/23 10:53:36;;;;;;;1.90;1.90;;;;;;;-0.27;57.47;100516.27;102698;1317;140483;-80
2021/12/23 10:59:23;;;;;;;1.80;1.80;;;;;;;-0.18;58.03;100501.79;102872;1318;140644;-80
2021/12/23 11:02:21;;;;;;;1.80;1.80;;;;;;;-0.07;58.18;100495.54;103822;1317;96196;-80
2021/12/23 11:05:13;;;;;;;1.80;1.80;;;;;;;0.03;57.42;100486.64;103307;1317;138630;-80
2021/12/23 11:07:55;;;;;;;1.90;1.90;;;;;;;0.05;57.59;100475.16;103666;1318;109282;-80
2021/12/23 11:28:00;;;;;;;1.70;1.70;;;;;;;0.17;57.21;100420.38;102505;1317;109386;-79
2021/12/23 11:41:34;;;;;;;1.90;1.90;;;;;;;-0.16;57.69;100389.45;102358;1322;140579;-79
2021/12/23 11:44:05;;;;;;;1.80;1.80;;;;;;;-0.12;57.88;100382.20;102642;1319;95199;-79
2021/12/23 11:46:46;;;;;;;1.70;1.70;;;;;;;-0.07;57.73;100374.24;102588;1317;139853;-80
2021/12/23 11:49:16;;;;;;;1.80;1.80;;;;;;;-0.08;57.68;100367.27;102833;1317;109151;-80
2021/12/23 11:54:27;;;;;;;1.80;1.80;;;;;;;-0.10;57.70;100360.75;102748;1317;141772;-79
2021/12/23 11:57:03;;;;;;;1.80;1.80;;;;;;;-0.09;58.06;100346.64;102873;1318;95273;-79
2021/12/23 11:59:32;;;;;;;2.00;2.00;;;;;;;-0.10;57.84;100336.67;102531;1321;140415;-80
2021/12/23 12:02:00;;;;;;;1.90;1.90;;;;;;;-0.07;58.01;100324.34;102809;1317;110435;-80
2021/12/23 12:04:32;;;;;;;1.80;1.80;;;;;;;0.02;58.03;100316.80;102722;1317;138859;-79
2021/12/23 12:07:00;;;;;;;1.70;1.70;;;;;;;0.09;58.06;100313.40;102874;1318;95162;-80
2021/12/23 12:09:31;;;;;;;1.80;1.80;;;;;;;0.17;58.00;100308.45;102853;1315;107846;-80
2021/12/23 12:11:59;;;;;;;1.90;1.90;;;;;;;0.14;57.36;100303.54;102608;1317;140494;-80
2021/12/23 12:14:39;;;;;;;1.90;1.90;;;;;;;0.12;57.49;100296.16;102715;1318;95461;-80
2021/12/23 12:17:25;;;;;;;1.90;1.90;;;;;;;0.06;57.41;100289.46;103723;1317;139775;-80
2021/12/23 12:20:34;;;;;;;1.80;1.80;;;;;;;-0.01;57.53;100283.77;103857;1315;108673;-80
2021/12/23 12:23:11;;;;;;;2.20;2.10;;;;;;;-0.07;57.88;100277.22;102624;1317;140391;-80
2021/12/23 12:25:43;;;;;;;1.80;1.80;;;;;;;0.01;57.77;100273.83;102645;1318;95183;-81
2021/12/23 12:28:17;;;;;;;1.70;1.70;;;;;;;0.12;58.17;100271.02;102723;1317;140120;-80
2021/12/23 12:31:13;;;;;;;1.70;1.70;;;;;;;0.21;57.76;100272.20;102798;1317;108822;-80
2021/12/23 12:33:53;;;;;;;1.70;1.70;;;;;;;0.22;57.04;100270.98;102812;1318;110195;-80